WZZ9FW LHBP-LRBS
Flight info
| Callsign | WZZ9FW |
|---|---|
| Flight time | 1h 14m |
| Altitude | 35000 |
| Route | VETIK2B VETIK DCT BUDOP DCT BUXLE DCT SIB DCT PELUR DCT DENAK DENAK1Y |
| Aircraft | A320/M-SDE1E2E3FGIJ1J4RWXY/LB1 |
Departure
| Time | 2026-05-05 14:34 |
|---|---|
| Airport | Budapest Liszt Ferenc International Airport (LHBP) |
Arrival
| Time | 2026-05-05 15:49 |
|---|---|
| Airport | Bucharest Băneasa Aurel Vlaicu International Airport (LRBS) |
| Time | Latitude | Longitude | Altitude | Speed | Heading |
|---|---|---|---|---|---|
| 2026-05-05 14:12 | 47.43391 | 19.25800 | 474 ft | 0 kts | 227° |
| 2026-05-05 14:24 | 47.43396 | 19.25809 | 474 ft | 4 kts | 229° |
| 2026-05-05 14:24 | 47.43413 | 19.25840 | 474 ft | 4 kts | 237° |
| 2026-05-05 14:24 | 47.43426 | 19.25875 | 475 ft | 4 kts | 252° |
| 2026-05-05 14:25 | 47.43427 | 19.25922 | 478 ft | 3 kts | 308° |
| 2026-05-05 14:25 | 47.43425 | 19.25926 | 478 ft | 0 kts | 312° |
| 2026-05-05 14:28 | 47.43438 | 19.25904 | 474 ft | 6 kts | 312° |
| 2026-05-05 14:28 | 47.43476 | 19.25845 | 478 ft | 10 kts | 314° |
| 2026-05-05 14:29 | 47.43524 | 19.25766 | 480 ft | 11 kts | 311° |
| 2026-05-05 14:29 | 47.43587 | 19.25719 | 480 ft | 10 kts | 19° |
| 2026-05-05 14:29 | 47.43642 | 19.25787 | 484 ft | 11 kts | 42° |
| 2026-05-05 14:29 | 47.43699 | 19.25864 | 483 ft | 11 kts | 42° |
| 2026-05-05 14:30 | 47.43761 | 19.25948 | 485 ft | 13 kts | 42° |
| 2026-05-05 14:30 | 47.43827 | 19.26037 | 486 ft | 13 kts | 42° |
| 2026-05-05 14:30 | 47.43896 | 19.26128 | 489 ft | 14 kts | 41° |
| 2026-05-05 14:30 | 47.43980 | 19.26104 | 490 ft | 15 kts | 313° |
| 2026-05-05 14:31 | 47.44055 | 19.25982 | 487 ft | 17 kts | 312° |
| 2026-05-05 14:31 | 47.44140 | 19.25845 | 491 ft | 17 kts | 313° |
| 2026-05-05 14:31 | 47.44208 | 19.25736 | 486 ft | 10 kts | 312° |
| 2026-05-05 14:31 | 47.44256 | 19.25657 | 485 ft | 9 kts | 312° |
| 2026-05-05 14:32 | 47.44309 | 19.25584 | 486 ft | 12 kts | 326° |
| 2026-05-05 14:32 | 47.44387 | 19.25554 | 485 ft | 12 kts | 4° |
| 2026-05-05 14:32 | 47.44445 | 19.25582 | 483 ft | 8 kts | 28° |
| 2026-05-05 14:32 | 47.44487 | 19.25644 | 485 ft | 10 kts | 56° |
| 2026-05-05 14:33 | 47.44506 | 19.25757 | 489 ft | 10 kts | 84° |
| 2026-05-05 14:33 | 47.44498 | 19.25830 | 489 ft | 7 kts | 129° |
| 2026-05-05 14:33 | 47.44488 | 19.25845 | 484 ft | 6 kts | 132° |
| 2026-05-05 14:33 | 47.44349 | 19.26068 | 485 ft | 64 kts | 133° |
| 2026-05-05 14:34 | 47.43903 | 19.26789 | 487 ft | 124 kts | 132° |
| 2026-05-05 14:34 | 47.43217 | 19.27897 | 487 ft | 168 kts | 133° |
| 2026-05-05 14:34 | 47.42394 | 19.29220 | 933 ft | 177 kts | 139° |
| 2026-05-05 14:34 | 47.41664 | 19.30745 | 1549 ft | 185 kts | 127° |
| 2026-05-05 14:35 | 47.41004 | 19.32462 | 2008 ft | 202 kts | 123° |
| 2026-05-05 14:35 | 47.40303 | 19.34375 | 2392 ft | 223 kts | 122° |
| 2026-05-05 14:35 | 47.39522 | 19.36489 | 2909 ft | 240 kts | 122° |
| 2026-05-05 14:35 | 47.38714 | 19.38665 | 3808 ft | 244 kts | 121° |
| 2026-05-05 14:36 | 47.38229 | 19.41178 | 4411 ft | 270 kts | 97° |
| 2026-05-05 14:36 | 47.38006 | 19.43959 | 5233 ft | 274 kts | 110° |
| 2026-05-05 14:36 | 47.37262 | 19.46547 | 6078 ft | 276 kts | 122° |
| 2026-05-05 14:36 | 47.36304 | 19.48968 | 6920 ft | 278 kts | 126° |
| 2026-05-05 14:37 | 47.35290 | 19.51418 | 7802 ft | 282 kts | 126° |
| 2026-05-05 14:37 | 47.34299 | 19.53933 | 8675 ft | 285 kts | 124° |
| 2026-05-05 14:37 | 47.33348 | 19.56519 | 9533 ft | 289 kts | 122° |
| 2026-05-05 14:37 | 47.32427 | 19.59179 | 10258 ft | 298 kts | 121° |
| 2026-05-05 14:38 | 47.31470 | 19.62025 | 10502 ft | 321 kts | 121° |
| 2026-05-05 14:38 | 47.30480 | 19.65046 | 11019 ft | 332 kts | 120° |
| 2026-05-05 14:38 | 47.29484 | 19.68137 | 11732 ft | 336 kts | 119° |
| 2026-05-05 14:38 | 47.28483 | 19.71263 | 12477 ft | 339 kts | 119° |
| 2026-05-05 14:39 | 47.27471 | 19.74420 | 13211 ft | 342 kts | 119° |
| 2026-05-05 14:39 | 47.26450 | 19.77596 | 13927 ft | 345 kts | 119° |
| 2026-05-05 14:39 | 47.25415 | 19.80805 | 14554 ft | 348 kts | 119° |
| 2026-05-05 14:39 | 47.24368 | 19.84037 | 15140 ft | 352 kts | 118° |
| 2026-05-05 14:40 | 47.23322 | 19.87262 | 15731 ft | 355 kts | 118° |
| 2026-05-05 14:40 | 47.22252 | 19.90551 | 16342 ft | 358 kts | 118° |
| 2026-05-05 14:40 | 47.21166 | 19.93878 | 16959 ft | 362 kts | 118° |
| 2026-05-05 14:40 | 47.20068 | 19.97227 | 17562 ft | 365 kts | 118° |
| 2026-05-05 14:41 | 47.18956 | 20.00613 | 18186 ft | 369 kts | 118° |
| 2026-05-05 14:41 | 47.17837 | 20.04021 | 18714 ft | 372 kts | 118° |
| 2026-05-05 14:41 | 47.16705 | 20.07476 | 19223 ft | 376 kts | 118° |
| 2026-05-05 14:41 | 47.15564 | 20.10960 | 19736 ft | 380 kts | 118° |
| 2026-05-05 14:42 | 47.14411 | 20.14482 | 20243 ft | 385 kts | 118° |
| 2026-05-05 14:42 | 47.13241 | 20.18043 | 20723 ft | 389 kts | 117° |
| 2026-05-05 14:42 | 47.12057 | 20.21634 | 21215 ft | 392 kts | 118° |
| 2026-05-05 14:42 | 47.10860 | 20.25255 | 21676 ft | 396 kts | 117° |
| 2026-05-05 14:43 | 47.09651 | 20.28908 | 22114 ft | 399 kts | 117° |
| 2026-05-05 14:43 | 47.08435 | 20.32587 | 22611 ft | 403 kts | 117° |
| 2026-05-05 14:43 | 47.07223 | 20.36251 | 23093 ft | 406 kts | 117° |
| 2026-05-05 14:43 | 47.05980 | 20.39999 | 23537 ft | 409 kts | 117° |
| 2026-05-05 14:44 | 47.04723 | 20.43764 | 23915 ft | 413 kts | 117° |
| 2026-05-05 14:44 | 47.03456 | 20.47557 | 24324 ft | 416 kts | 117° |
| 2026-05-05 14:44 | 47.02182 | 20.51371 | 24740 ft | 418 kts | 117° |
| 2026-05-05 14:44 | 47.00899 | 20.55209 | 25133 ft | 420 kts | 117° |
| 2026-05-05 14:45 | 46.99608 | 20.59070 | 25512 ft | 423 kts | 117° |
| 2026-05-05 14:45 | 46.98307 | 20.62956 | 25916 ft | 425 kts | 117° |
| 2026-05-05 14:45 | 46.96999 | 20.66857 | 26326 ft | 427 kts | 117° |
| 2026-05-05 14:45 | 46.95685 | 20.70773 | 26712 ft | 430 kts | 117° |
| 2026-05-05 14:46 | 46.94357 | 20.74718 | 27074 ft | 433 kts | 117° |
| 2026-05-05 14:46 | 46.93018 | 20.78681 | 27456 ft | 435 kts | 117° |
| 2026-05-05 14:46 | 46.91667 | 20.82669 | 27865 ft | 437 kts | 117° |
| 2026-05-05 14:46 | 46.90317 | 20.86664 | 28221 ft | 440 kts | 117° |
| 2026-05-05 14:47 | 46.88957 | 20.90690 | 28545 ft | 443 kts | 117° |
| 2026-05-05 14:47 | 46.87603 | 20.94696 | 28895 ft | 446 kts | 117° |
| 2026-05-05 14:47 | 46.86225 | 20.98773 | 29276 ft | 449 kts | 117° |
| 2026-05-05 14:47 | 46.84833 | 21.02874 | 29637 ft | 452 kts | 117° |
| 2026-05-05 14:48 | 46.83430 | 21.06996 | 29999 ft | 454 kts | 117° |
| 2026-05-05 14:48 | 46.82012 | 21.11145 | 30322 ft | 457 kts | 117° |
| 2026-05-05 14:48 | 46.80586 | 21.15307 | 30641 ft | 459 kts | 117° |
| 2026-05-05 14:48 | 46.79154 | 21.19482 | 30956 ft | 461 kts | 117° |
| 2026-05-05 14:49 | 46.77719 | 21.23653 | 31370 ft | 460 kts | 117° |
| 2026-05-05 14:49 | 46.76284 | 21.27814 | 31862 ft | 458 kts | 117° |
| 2026-05-05 14:49 | 46.74857 | 21.31955 | 32332 ft | 456 kts | 117° |
| 2026-05-05 14:49 | 46.73435 | 21.36090 | 32775 ft | 456 kts | 117° |
| 2026-05-05 14:50 | 46.72015 | 21.40219 | 33235 ft | 454 kts | 117° |
| 2026-05-05 14:50 | 46.70599 | 21.44329 | 33739 ft | 452 kts | 117° |
| 2026-05-05 14:50 | 46.69205 | 21.48363 | 34158 ft | 452 kts | 117° |
| 2026-05-05 14:50 | 46.67806 | 21.52461 | 34500 ft | 452 kts | 116° |
| 2026-05-05 14:51 | 46.66462 | 21.56590 | 34846 ft | 451 kts | 115° |
| 2026-05-05 14:51 | 46.65159 | 21.60739 | 34936 ft | 450 kts | 114° |
| 2026-05-05 14:51 | 46.62601 | 21.69021 | 34952 ft | 447 kts | 114° |
| 2026-05-05 14:52 | 46.60015 | 21.77246 | 34957 ft | 446 kts | 114° |
| 2026-05-05 14:52 | 46.57410 | 21.85382 | 34960 ft | 446 kts | 115° |
| 2026-05-05 14:53 | 46.54800 | 21.93588 | 34963 ft | 446 kts | 114° |
| 2026-05-05 14:53 | 46.52223 | 22.01786 | 34966 ft | 446 kts | 114° |
| 2026-05-05 14:54 | 46.49638 | 22.09994 | 34967 ft | 446 kts | 114° |
| 2026-05-05 14:54 | 46.47044 | 22.18187 | 34974 ft | 446 kts | 114° |
| 2026-05-05 14:55 | 46.44439 | 22.26363 | 34984 ft | 446 kts | 114° |
| 2026-05-05 14:55 | 46.41847 | 22.34467 | 34974 ft | 446 kts | 114° |
| 2026-05-05 14:56 | 46.39224 | 22.42646 | 34987 ft | 447 kts | 114° |
| 2026-05-05 14:56 | 46.36607 | 22.50794 | 34989 ft | 447 kts | 114° |
| 2026-05-05 14:57 | 46.33978 | 22.58954 | 34989 ft | 447 kts | 114° |
| 2026-05-05 14:57 | 46.31340 | 22.67108 | 35002 ft | 446 kts | 114° |
| 2026-05-05 14:58 | 46.28717 | 22.75190 | 35000 ft | 446 kts | 114° |
| 2026-05-05 14:58 | 46.26070 | 22.83315 | 34998 ft | 446 kts | 114° |
| 2026-05-05 14:59 | 46.23417 | 22.91447 | 34998 ft | 446 kts | 114° |
| 2026-05-05 14:59 | 46.20763 | 22.99553 | 35003 ft | 446 kts | 114° |
| 2026-05-05 15:00 | 46.18547 | 23.06284 | 34996 ft | 446 kts | 114° |
| 2026-05-05 15:00 | 46.15450 | 23.15674 | 34991 ft | 446 kts | 114° |
| 2026-05-05 15:01 | 46.12784 | 23.23750 | 34985 ft | 445 kts | 114° |
| 2026-05-05 15:01 | 46.10111 | 23.31821 | 34993 ft | 445 kts | 114° |
| 2026-05-05 15:02 | 46.07435 | 23.39864 | 34988 ft | 446 kts | 114° |
| 2026-05-05 15:02 | 46.04740 | 23.47911 | 34983 ft | 445 kts | 114° |
| 2026-05-05 15:03 | 46.02049 | 23.55945 | 34981 ft | 445 kts | 114° |
| 2026-05-05 15:03 | 45.99357 | 23.63986 | 34990 ft | 445 kts | 114° |
| 2026-05-05 15:04 | 45.96673 | 23.71950 | 34990 ft | 445 kts | 114° |
| 2026-05-05 15:04 | 45.93956 | 23.79967 | 35002 ft | 445 kts | 114° |
| 2026-05-05 15:05 | 45.89888 | 23.91955 | 35014 ft | 445 kts | 114° |
| 2026-05-05 15:06 | 45.87173 | 23.99947 | 35019 ft | 445 kts | 114° |
| 2026-05-05 15:06 | 45.84468 | 24.07889 | 35015 ft | 445 kts | 114° |
| 2026-05-05 15:07 | 45.81736 | 24.15863 | 34980 ft | 445 kts | 114° |
| 2026-05-05 15:07 | 45.78997 | 24.23830 | 34981 ft | 445 kts | 114° |
| 2026-05-05 15:08 | 45.76255 | 24.31798 | 34997 ft | 446 kts | 114° |
| 2026-05-05 15:08 | 45.73506 | 24.39764 | 34993 ft | 445 kts | 114° |
| 2026-05-05 15:09 | 45.70773 | 24.47654 | 34998 ft | 445 kts | 114° |
| 2026-05-05 15:09 | 45.68008 | 24.55596 | 35006 ft | 445 kts | 114° |
| 2026-05-05 15:10 | 45.65244 | 24.63522 | 35014 ft | 445 kts | 114° |
| 2026-05-05 15:10 | 45.62472 | 24.71448 | 35020 ft | 445 kts | 114° |
| 2026-05-05 15:11 | 45.59699 | 24.79360 | 35023 ft | 445 kts | 114° |
| 2026-05-05 15:11 | 45.56945 | 24.87202 | 34982 ft | 444 kts | 114° |
| 2026-05-05 15:11 | 45.55561 | 24.91121 | 34737 ft | 439 kts | 114° |
| 2026-05-05 15:12 | 45.54189 | 24.94989 | 34389 ft | 434 kts | 114° |
| 2026-05-05 15:12 | 45.52827 | 24.98826 | 33886 ft | 433 kts | 114° |
| 2026-05-05 15:12 | 45.51466 | 25.02655 | 33382 ft | 431 kts | 114° |
| 2026-05-05 15:12 | 45.50114 | 25.06461 | 32914 ft | 428 kts | 114° |
| 2026-05-05 15:13 | 45.48776 | 25.10236 | 32443 ft | 425 kts | 114° |
| 2026-05-05 15:13 | 45.47467 | 25.13929 | 31984 ft | 421 kts | 114° |
| 2026-05-05 15:13 | 45.46150 | 25.17644 | 31522 ft | 419 kts | 114° |
| 2026-05-05 15:13 | 45.44837 | 25.21339 | 31081 ft | 416 kts | 114° |
| 2026-05-05 15:14 | 45.43532 | 25.25000 | 30649 ft | 414 kts | 114° |
| 2026-05-05 15:14 | 45.42231 | 25.28637 | 30195 ft | 412 kts | 114° |
| 2026-05-05 15:14 | 45.41352 | 25.31088 | 29882 ft | 410 kts | 114° |
| 2026-05-05 15:14 | 45.40076 | 25.34641 | 29436 ft | 406 kts | 114° |
| 2026-05-05 15:15 | 45.38798 | 25.38201 | 29043 ft | 402 kts | 114° |
| 2026-05-05 15:15 | 45.37528 | 25.41730 | 28635 ft | 398 kts | 114° |
| 2026-05-05 15:15 | 45.36274 | 25.45214 | 28243 ft | 394 kts | 114° |
| 2026-05-05 15:15 | 45.35030 | 25.48667 | 27839 ft | 391 kts | 114° |
| 2026-05-05 15:16 | 45.33796 | 25.52089 | 27451 ft | 387 kts | 114° |
| 2026-05-05 15:16 | 45.32562 | 25.55502 | 27052 ft | 385 kts | 114° |
| 2026-05-05 15:16 | 45.31342 | 25.58877 | 26657 ft | 383 kts | 114° |
| 2026-05-05 15:16 | 45.30127 | 25.62231 | 26258 ft | 381 kts | 114° |
| 2026-05-05 15:17 | 45.28917 | 25.65565 | 25839 ft | 378 kts | 114° |
| 2026-05-05 15:17 | 45.27719 | 25.68869 | 25421 ft | 375 kts | 114° |
| 2026-05-05 15:17 | 45.26525 | 25.72163 | 25005 ft | 374 kts | 114° |
| 2026-05-05 15:17 | 45.25334 | 25.75435 | 24585 ft | 372 kts | 114° |
| 2026-05-05 15:18 | 45.24163 | 25.78650 | 24164 ft | 371 kts | 114° |
| 2026-05-05 15:18 | 45.22978 | 25.81901 | 23731 ft | 370 kts | 114° |
| 2026-05-05 15:18 | 45.21799 | 25.85141 | 23255 ft | 368 kts | 114° |
| 2026-05-05 15:18 | 45.20630 | 25.88349 | 22841 ft | 365 kts | 114° |
| 2026-05-05 15:19 | 45.19464 | 25.91536 | 22391 ft | 362 kts | 114° |
| 2026-05-05 15:19 | 45.18309 | 25.94683 | 21973 ft | 358 kts | 114° |
| 2026-05-05 15:19 | 45.17162 | 25.97804 | 21550 ft | 355 kts | 114° |
| 2026-05-05 15:19 | 45.16023 | 26.00899 | 21130 ft | 353 kts | 114° |
| 2026-05-05 15:20 | 45.14894 | 26.03970 | 20713 ft | 350 kts | 114° |
| 2026-05-05 15:20 | 45.13774 | 26.07015 | 20293 ft | 348 kts | 114° |
| 2026-05-05 15:20 | 45.12659 | 26.10049 | 19880 ft | 346 kts | 114° |
| 2026-05-05 15:20 | 45.11564 | 26.13022 | 19477 ft | 343 kts | 114° |
| 2026-05-05 15:21 | 45.10456 | 26.16015 | 19064 ft | 342 kts | 114° |
| 2026-05-05 15:21 | 45.09340 | 26.19028 | 18651 ft | 340 kts | 114° |
| 2026-05-05 15:21 | 45.08257 | 26.21951 | 18245 ft | 340 kts | 114° |
| 2026-05-05 15:21 | 45.07163 | 26.24904 | 17802 ft | 338 kts | 114° |
| 2026-05-05 15:22 | 45.06084 | 26.27813 | 17609 ft | 329 kts | 114° |
| 2026-05-05 15:22 | 45.05031 | 26.30646 | 17329 ft | 323 kts | 114° |
| 2026-05-05 15:22 | 45.03989 | 26.33450 | 16981 ft | 320 kts | 114° |
| 2026-05-05 15:22 | 45.02957 | 26.36216 | 16396 ft | 316 kts | 113° |
| 2026-05-05 15:23 | 45.01928 | 26.38976 | 15874 ft | 317 kts | 113° |
| 2026-05-05 15:23 | 45.00764 | 26.41637 | 15485 ft | 321 kts | 124° |
| 2026-05-05 15:23 | 44.99180 | 26.43886 | 15103 ft | 326 kts | 138° |
| 2026-05-05 15:23 | 44.97261 | 26.45551 | 14724 ft | 330 kts | 151° |
| 2026-05-05 15:24 | 44.95176 | 26.46931 | 14329 ft | 331 kts | 151° |
| 2026-05-05 15:24 | 44.93090 | 26.48318 | 13942 ft | 331 kts | 151° |
| 2026-05-05 15:24 | 44.91005 | 26.49711 | 13511 ft | 331 kts | 151° |
| 2026-05-05 15:24 | 44.88950 | 26.51077 | 13103 ft | 320 kts | 151° |
| 2026-05-05 15:25 | 44.86874 | 26.52172 | 12376 ft | 323 kts | 167° |
| 2026-05-05 15:25 | 44.84606 | 26.52212 | 11493 ft | 331 kts | 191° |
| 2026-05-05 15:25 | 44.82427 | 26.51129 | 10630 ft | 334 kts | 205° |
| 2026-05-05 15:25 | 44.80382 | 26.49843 | 10433 ft | 315 kts | 205° |
| 2026-05-05 15:26 | 44.78443 | 26.48619 | 10289 ft | 296 kts | 205° |
| 2026-05-05 15:26 | 44.76618 | 26.47470 | 10176 ft | 278 kts | 205° |
| 2026-05-05 15:26 | 44.74902 | 26.46392 | 10051 ft | 262 kts | 205° |
| 2026-05-05 15:26 | 44.73263 | 26.45363 | 9773 ft | 255 kts | 205° |
| 2026-05-05 15:27 | 44.71653 | 26.44353 | 9383 ft | 252 kts | 205° |
| 2026-05-05 15:27 | 44.70057 | 26.43354 | 8969 ft | 250 kts | 205° |
| 2026-05-05 15:27 | 44.68466 | 26.42358 | 8556 ft | 248 kts | 205° |
| 2026-05-05 15:27 | 44.66896 | 26.41371 | 8147 ft | 247 kts | 205° |
| 2026-05-05 15:28 | 44.65335 | 26.40391 | 7752 ft | 245 kts | 205° |
| 2026-05-05 15:28 | 44.63786 | 26.39422 | 7369 ft | 243 kts | 205° |
| 2026-05-05 15:28 | 44.62251 | 26.38463 | 6976 ft | 241 kts | 205° |
| 2026-05-05 15:28 | 44.60744 | 26.37523 | 6605 ft | 239 kts | 204° |
| 2026-05-05 15:29 | 44.59265 | 26.36602 | 6469 ft | 223 kts | 204° |
| 2026-05-05 15:29 | 44.57881 | 26.35739 | 6132 ft | 215 kts | 204° |
| 2026-05-05 15:29 | 44.56540 | 26.34897 | 5638 ft | 209 kts | 207° |
| 2026-05-05 15:29 | 44.55419 | 26.33654 | 5088 ft | 204 kts | 233° |
| 2026-05-05 15:30 | 44.54753 | 26.31881 | 4351 ft | 210 kts | 255° |
| 2026-05-05 15:30 | 44.54350 | 26.29900 | 3751 ft | 211 kts | 255° |
| 2026-05-05 15:30 | 44.53964 | 26.27991 | 3546 ft | 193 kts | 255° |
| 2026-05-05 15:30 | 44.53612 | 26.26262 | 3419 ft | 176 kts | 254° |
| 2026-05-05 15:31 | 44.53289 | 26.24683 | 3204 ft | 167 kts | 253° |
| 2026-05-05 15:31 | 44.52970 | 26.23121 | 2903 ft | 166 kts | 253° |
| 2026-05-05 15:31 | 44.52652 | 26.21533 | 2733 ft | 180 kts | 253° |
| 2026-05-05 15:31 | 44.52289 | 26.19726 | 2865 ft | 204 kts | 253° |
| 2026-05-05 15:32 | 44.51887 | 26.17725 | 3154 ft | 220 kts | 253° |
| 2026-05-05 15:32 | 44.51452 | 26.15587 | 3724 ft | 234 kts | 254° |
| 2026-05-05 15:32 | 44.50980 | 26.13391 | 3950 ft | 236 kts | 254° |
| 2026-05-05 15:32 | 44.50491 | 26.11198 | 4001 ft | 236 kts | 253° |
| 2026-05-05 15:33 | 44.50003 | 26.09036 | 4010 ft | 235 kts | 253° |
| 2026-05-05 15:33 | 44.49510 | 26.06850 | 4009 ft | 235 kts | 253° |
| 2026-05-05 15:33 | 44.49015 | 26.04661 | 4009 ft | 236 kts | 253° |
| 2026-05-05 15:33 | 44.48516 | 26.02471 | 4010 ft | 236 kts | 253° |
| 2026-05-05 15:34 | 44.48022 | 26.00289 | 4008 ft | 234 kts | 253° |
| 2026-05-05 15:34 | 44.47543 | 25.98118 | 4009 ft | 233 kts | 253° |
| 2026-05-05 15:34 | 44.47067 | 25.95956 | 4008 ft | 232 kts | 253° |
| 2026-05-05 15:34 | 44.46592 | 25.93785 | 4007 ft | 233 kts | 253° |
| 2026-05-05 15:35 | 44.46119 | 25.91613 | 4006 ft | 233 kts | 253° |
| 2026-05-05 15:35 | 44.45642 | 25.89447 | 4005 ft | 232 kts | 253° |
| 2026-05-05 15:35 | 44.45165 | 25.87289 | 4004 ft | 232 kts | 253° |
| 2026-05-05 15:35 | 44.44853 | 25.85083 | 4001 ft | 230 kts | 274° |
| 2026-05-05 15:36 | 44.45343 | 25.83010 | 4005 ft | 230 kts | 306° |
| 2026-05-05 15:36 | 44.46574 | 25.81620 | 3988 ft | 231 kts | 339° |
| 2026-05-05 15:36 | 44.48162 | 25.81386 | 3988 ft | 234 kts | 11° |
| 2026-05-05 15:36 | 44.49607 | 25.82387 | 3989 ft | 236 kts | 40° |
| 2026-05-05 15:37 | 44.50788 | 25.83993 | 3987 ft | 237 kts | 46° |
| 2026-05-05 15:37 | 44.51917 | 25.85689 | 3986 ft | 238 kts | 46° |
| 2026-05-05 15:37 | 44.53038 | 25.87404 | 3984 ft | 238 kts | 46° |
| 2026-05-05 15:37 | 44.54156 | 25.89110 | 3984 ft | 237 kts | 46° |
| 2026-05-05 15:38 | 44.55273 | 25.90815 | 3983 ft | 238 kts | 46° |
| 2026-05-05 15:38 | 44.56389 | 25.92529 | 3986 ft | 238 kts | 47° |
| 2026-05-05 15:38 | 44.57505 | 25.94238 | 3983 ft | 238 kts | 47° |
| 2026-05-05 15:38 | 44.58626 | 25.95944 | 3982 ft | 238 kts | 46° |
| 2026-05-05 15:39 | 44.59747 | 25.97654 | 3980 ft | 238 kts | 46° |
| 2026-05-05 15:39 | 44.60856 | 25.99348 | 3981 ft | 238 kts | 46° |
| 2026-05-05 15:39 | 44.61983 | 26.01092 | 3980 ft | 238 kts | 51° |
| 2026-05-05 15:39 | 44.62661 | 26.03150 | 3984 ft | 239 kts | 79° |
| 2026-05-05 15:40 | 44.62847 | 26.05480 | 3984 ft | 240 kts | 86° |
| 2026-05-05 15:40 | 44.62949 | 26.07814 | 3982 ft | 239 kts | 86° |
| 2026-05-05 15:40 | 44.63041 | 26.10143 | 3981 ft | 239 kts | 86° |
| 2026-05-05 15:40 | 44.63133 | 26.12473 | 3982 ft | 239 kts | 86° |
| 2026-05-05 15:41 | 44.63225 | 26.14808 | 3982 ft | 240 kts | 86° |
| 2026-05-05 15:41 | 44.63316 | 26.17139 | 3854 ft | 236 kts | 86° |
| 2026-05-05 15:41 | 44.63396 | 26.19419 | 3632 ft | 232 kts | 86° |
| 2026-05-05 15:41 | 44.63473 | 26.21673 | 3391 ft | 230 kts | 87° |
| 2026-05-05 15:42 | 44.63562 | 26.23902 | 3136 ft | 226 kts | 87° |
| 2026-05-05 15:42 | 44.63663 | 26.26036 | 2902 ft | 217 kts | 86° |
| 2026-05-05 15:42 | 44.63767 | 26.28159 | 2651 ft | 214 kts | 87° |
| 2026-05-05 15:42 | 44.63871 | 26.30198 | 2519 ft | 212 kts | 87° |
| 2026-05-05 15:43 | 44.63981 | 26.32254 | 2502 ft | 211 kts | 86° |
| 2026-05-05 15:43 | 44.63971 | 26.34328 | 2496 ft | 210 kts | 104° |
| 2026-05-05 15:43 | 44.63336 | 26.36133 | 2502 ft | 208 kts | 133° |
| 2026-05-05 15:43 | 44.62154 | 26.37247 | 2503 ft | 206 kts | 163° |
| 2026-05-05 15:44 | 44.60741 | 26.37382 | 2503 ft | 206 kts | 192° |
| 2026-05-05 15:44 | 44.59422 | 26.36672 | 2508 ft | 206 kts | 204° |
| 2026-05-05 15:44 | 44.58101 | 26.35851 | 2506 ft | 208 kts | 204° |
| 2026-05-05 15:44 | 44.56808 | 26.34952 | 2502 ft | 208 kts | 213° |
| 2026-05-05 15:45 | 44.55710 | 26.33645 | 2506 ft | 208 kts | 228° |
| 2026-05-05 15:45 | 44.54888 | 26.31975 | 2504 ft | 209 kts | 243° |
| 2026-05-05 15:45 | 44.54393 | 26.30065 | 2506 ft | 209 kts | 254° |
| 2026-05-05 15:45 | 44.53999 | 26.28101 | 2504 ft | 207 kts | 253° |
| 2026-05-05 15:46 | 44.53617 | 26.26218 | 2503 ft | 194 kts | 253° |
| 2026-05-05 15:46 | 44.53270 | 26.24499 | 2394 ft | 171 kts | 253° |
| 2026-05-05 15:46 | 44.52968 | 26.22992 | 2259 ft | 157 kts | 252° |
| 2026-05-05 15:46 | 44.52671 | 26.21551 | 1992 ft | 151 kts | 251° |
| 2026-05-05 15:47 | 44.52371 | 26.20153 | 1707 ft | 148 kts | 252° |
| 2026-05-05 15:47 | 44.52195 | 26.19246 | 1592 ft | 144 kts | 253° |
| 2026-05-05 15:47 | 44.51817 | 26.17463 | 1301 ft | 142 kts | 251° |
| 2026-05-05 15:47 | 44.51535 | 26.16146 | 1036 ft | 141 kts | 252° |
| 2026-05-05 15:48 | 44.51273 | 26.14834 | 755 ft | 139 kts | 256° |
| 2026-05-05 15:48 | 44.51001 | 26.13543 | 519 ft | 137 kts | 253° |
| 2026-05-05 15:48 | 44.50739 | 26.12263 | 350 ft | 136 kts | 255° |
| 2026-05-05 15:48 | 44.50492 | 26.11060 | 299 ft | 111 kts | 254° |
| 2026-05-05 15:49 | 44.50325 | 26.10251 | 302 ft | 62 kts | 253° |
| 2026-05-05 15:49 | 44.50226 | 26.09768 | 300 ft | 48 kts | 253° |
| 2026-05-05 15:49 | 44.50141 | 26.09357 | 300 ft | 42 kts | 254° |
| 2026-05-05 15:49 | 44.50062 | 26.08985 | 303 ft | 39 kts | 254° |
| 2026-05-05 15:50 | 44.49991 | 26.08642 | 307 ft | 35 kts | 253° |
| 2026-05-05 15:50 | 44.49937 | 26.08375 | 308 ft | 25 kts | 254° |
| 2026-05-05 15:50 | 44.49902 | 26.08211 | 308 ft | 15 kts | 248° |
| 2026-05-05 15:50 | 44.49835 | 26.08166 | 307 ft | 5 kts | 172° |
| 2026-05-05 15:51 | 44.49807 | 26.08185 | 310 ft | 4 kts | 141° |
| 2026-05-05 15:51 | 44.49794 | 26.08218 | 307 ft | 0 kts | 113° |
| 2026-05-05 15:51 | 44.49790 | 26.08231 | 307 ft | 3 kts | 114° |
| 2026-05-05 15:51 | 44.49783 | 26.08242 | 308 ft | 1 kts | 150° |
| 2026-05-05 15:52 | 44.49775 | 26.08276 | 307 ft | 8 kts | 90° |
| 2026-05-05 15:52 | 44.49778 | 26.08365 | 308 ft | 10 kts | 98° |
| 2026-05-05 15:52 | 44.49759 | 26.08447 | 306 ft | 7 kts | 151° |
| 2026-05-05 15:52 | 44.49709 | 26.08446 | 308 ft | 7 kts | 188° |
| 2026-05-05 15:53 | 44.49682 | 26.08395 | 306 ft | 8 kts | 274° |
| 2026-05-05 15:53 | 44.49694 | 26.08304 | 307 ft | 11 kts | 281° |
| 2026-05-05 15:53 | 44.49702 | 26.08204 | 306 ft | 9 kts | 269° |
| 2026-05-05 15:53 | 44.49674 | 26.08193 | 306 ft | 5 kts | 157° |
| 2026-05-05 15:54 | 44.49652 | 26.08206 | 306 ft | 0 kts | 159° |